sensor_id;sensor_type;location;lat;lon;timestamp;pressure;altitude;pressure_sealevel;temperature;humidity
55914;BME280;58179;48.776;9.124;2023-03-19T00:02:03;97037.41;;;9.95;100.00
55914;BME280;58179;48.776;9.124;2023-03-19T00:04:29;97043.00;;;9.99;100.00
55914;BME280;58179;48.776;9.124;2023-03-19T00:06:55;97040.03;;;9.95;100.00
55914;BME280;58179;48.776;9.124;2023-03-19T00:09:21;97045.63;;;9.99;100.00
55914;BME280;58179;48.776;9.124;2023-03-19T00:11:48;97041.91;;;10.00;100.00
55914;BME280;58179;48.776;9.124;2023-03-19T00:14:15;97037.97;;;10.02;100.00
55914;BME280;58179;48.776;9.124;2023-03-19T00:16:42;97040.13;;;10.05;100.00
55914;BME280;58179;48.776;9.124;2023-03-19T00:19:08;97034.56;;;10.07;100.00
55914;BME280;58179;48.776;9.124;2023-03-19T00:21:35;97036.16;;;10.08;100.00
55914;BME280;58179;48.776;9.124;2023-03-19T00:24:01;97035.66;;;10.11;100.00
55914;BME280;58179;48.776;9.124;2023-03-19T00:26:28;97039.63;;;10.14;100.00
55914;BME280;58179;48.776;9.124;2023-03-19T00:28:57;97042.00;;;10.15;100.00
55914;BME280;58179;48.776;9.124;2023-03-19T00:31:24;97036.69;;;10.10;100.00
55914;BME280;58179;48.776;9.124;2023-03-19T00:33:50;97041.97;;;10.05;100.00
55914;BME280;58179;48.776;9.124;2023-03-19T00:36:16;97040.88;;;10.01;100.00
55914;BME280;58179;48.776;9.124;2023-03-19T00:38:43;97044.03;;;9.98;100.00
55914;BME280;58179;48.776;9.124;2023-03-19T00:41:09;97044.53;;;9.95;100.00
55914;BME280;58179;48.776;9.124;2023-03-19T00:43:36;97047.44;;;9.93;100.00
55914;BME280;58179;48.776;9.124;2023-03-19T00:46:04;97049.25;;;9.88;100.00
55914;BME280;58179;48.776;9.124;2023-03-19T00:48:30;97045.81;;;9.87;100.00
55914;BME280;58179;48.776;9.124;2023-03-19T00:51:02;97040.81;;;9.91;100.00
55914;BME280;58179;48.776;9.124;2023-03-19T00:53:28;97047.19;;;9.95;100.00
55914;BME280;58179;48.776;9.124;2023-03-19T00:55:54;97051.16;;;9.97;100.00
55914;BME280;58179;48.776;9.124;2023-03-19T00:58:20;97048.00;;;10.00;100.00
55914;BME280;58179;48.776;9.124;2023-03-19T01:00:46;97046.69;;;10.03;100.00
55914;BME280;58179;48.776;9.124;2023-03-19T01:03:13;97053.09;;;10.07;100.00
55914;BME280;58179;48.776;9.124;2023-03-19T01:05:39;97049.66;;;10.12;100.00
55914;BME280;58179;48.776;9.124;2023-03-19T01:08:05;97053.59;;;10.09;100.00
55914;BME280;58179;48.776;9.124;2023-03-19T01:10:33;97050.44;;;10.07;100.00
55914;BME280;58179;48.776;9.124;2023-03-19T01:12:59;97053.09;;;10.07;100.00
55914;BME280;58179;48.776;9.124;2023-03-19T01:15:25;97058.66;;;10.10;100.00
55914;BME280;58179;48.776;9.124;2023-03-19T01:17:51;97061.09;;;10.17;100.00
55914;BME280;58179;48.776;9.124;2023-03-19T01:20:19;97070.66;;;10.23;100.00
55914;BME280;58179;48.776;9.124;2023-03-19T01:22:45;97077.59;;;10.29;100.00
55914;BME280;58179;48.776;9.124;2023-03-19T01:25:12;97076.25;;;10.32;100.00
55914;BME280;58179;48.776;9.124;2023-03-19T01:27:38;97081.03;;;10.35;100.00
55914;BME280;58179;48.776;9.124;2023-03-19T01:30:06;97075.75;;;10.35;100.00
55914;BME280;58179;48.776;9.124;2023-03-19T01:32:32;97078.16;;;10.36;100.00
55914;BME280;58179;48.776;9.124;2023-03-19T01:34:58;97085.81;;;10.38;100.00
55914;BME280;58179;48.776;9.124;2023-03-19T01:37:25;97096.13;;;10.34;100.00
55914;BME280;58179;48.776;9.124;2023-03-19T01:39:52;97105.41;;;10.37;100.00
55914;BME280;58179;48.776;9.124;2023-03-19T01:42:18;97108.72;;;10.69;100.00
55914;BME280;58179;48.776;9.124;2023-03-19T01:44:43;97102.38;;;10.75;100.00
55914;BME280;58179;48.776;9.124;2023-03-19T01:47:15;97097.69;;;10.82;100.00
55914;BME280;58179;48.776;9.124;2023-03-19T01:49:43;97105.94;;;10.96;100.00
55914;BME280;58179;48.776;9.124;2023-03-19T01:52:13;97111.19;;;10.86;100.00
55914;BME280;58179;48.776;9.124;2023-03-19T01:54:41;97106.69;;;10.86;100.00
55914;BME280;58179;48.776;9.124;2023-03-19T01:57:11;97106.94;;;10.90;100.00
55914;BME280;58179;48.776;9.124;2023-03-19T01:59:40;97115.16;;;10.89;100.00
55914;BME280;58179;48.776;9.124;2023-03-19T02:02:10;97130.22;;;10.83;100.00
55914;BME280;58179;48.776;9.124;2023-03-19T02:04:41;97119.69;;;10.93;100.00
55914;BME280;58179;48.776;9.124;2023-03-19T02:07:09;97123.06;;;10.83;100.00
55914;BME280;58179;48.776;9.124;2023-03-19T02:09:36;97125.47;;;10.80;100.00
55914;BME280;58179;48.776;9.124;2023-03-19T02:12:04;97130.25;;;10.88;100.00
55914;BME280;58179;48.776;9.124;2023-03-19T02:14:30;97128.72;;;10.97;100.00
55914;BME280;58179;48.776;9.124;2023-03-19T02:16:56;97135.75;;;10.76;100.00
55914;BME280;58179;48.776;9.124;2023-03-19T02:19:27;97139.84;;;10.47;100.00
55914;BME280;58179;48.776;9.124;2023-03-19T02:21:57;97139.97;;;10.25;100.00
55914;BME280;58179;48.776;9.124;2023-03-19T02:24:31;97142.94;;;10.02;100.00
55914;BME280;58179;48.776;9.124;2023-03-19T02:26:59;97136.69;;;9.81;100.00
55914;BME280;58179;48.776;9.124;2023-03-19T02:29:25;97135.81;;;9.70;100.00
55914;BME280;58179;48.776;9.124;2023-03-19T02:31:51;97127.50;;;9.57;100.00
55914;BME280;58179;48.776;9.124;2023-03-19T02:34:37;97107.06;;;9.47;100.00
55914;BME280;58179;48.776;9.124;2023-03-19T02:37:10;97111.59;;;9.52;100.00
55914;BME280;58179;48.776;9.124;2023-03-19T02:39:46;97114.53;;;9.55;100.00
55914;BME280;58179;48.776;9.124;2023-03-19T02:42:17;97116.44;;;9.60;100.00
55914;BME280;58179;48.776;9.124;2023-03-19T02:44:44;97117.00;;;9.62;100.00
55914;BME280;58179;48.776;9.124;2023-03-19T02:47:11;97121.75;;;9.65;100.00
55914;BME280;58179;48.776;9.124;2023-03-19T02:49:37;97116.84;;;9.79;100.00
55914;BME280;58179;48.776;9.124;2023-03-19T02:52:03;97123.53;;;9.54;100.00
55914;BME280;58179;48.776;9.124;2023-03-19T02:54:29;97112.16;;;9.54;100.00
55914;BME280;58179;48.776;9.124;2023-03-19T02:56:55;97118.50;;;9.53;100.00
55914;BME280;58179;48.776;9.124;2023-03-19T02:59:22;97121.63;;;9.50;100.00
55914;BME280;58179;48.776;9.124;2023-03-19T03:01:48;97119.28;;;9.53;100.00
55914;BME280;58179;48.776;9.124;2023-03-19T03:04:15;97123.25;;;9.56;100.00
55914;BME280;58179;48.776;9.124;2023-03-19T03:06:41;97131.50;;;9.59;100.00
55914;BME280;58179;48.776;9.124;2023-03-19T03:09:07;97130.22;;;9.62;100.00
55914;BME280;58179;48.776;9.124;2023-03-19T03:11:33;97133.44;;;9.69;100.00
55914;BME280;58179;48.776;9.124;2023-03-19T03:13:59;97129.09;;;9.58;100.00
55914;BME280;58179;48.776;9.124;2023-03-19T03:16:26;97129.78;;;9.48;100.00
55914;BME280;58179;48.776;9.124;2023-03-19T03:18:52;97130.06;;;9.47;100.00
55914;BME280;58179;48.776;9.124;2023-03-19T03:21:18;97121.81;;;9.43;100.00
55914;BME280;58179;48.776;9.124;2023-03-19T03:23:46;97123.44;;;9.44;100.00
55914;BME280;58179;48.776;9.124;2023-03-19T03:26:12;97123.47;;;9.49;100.00
55914;BME280;58179;48.776;9.124;2023-03-19T03:28:38;97117.69;;;9.52;100.00
55914;BME280;58179;48.776;9.124;2023-03-19T03:31:05;97122.31;;;9.40;100.00
55914;BME280;58179;48.776;9.124;2023-03-19T03:33:32;97122.59;;;9.39;100.00
55914;BME280;58179;48.776;9.124;2023-03-19T03:35:58;97123.88;;;9.36;100.00
55914;BME280;58179;48.776;9.124;2023-03-19T03:38:24;97129.72;;;9.38;100.00
55914;BME280;58179;48.776;9.124;2023-03-19T03:40:50;97127.28;;;9.31;100.00
55914;BME280;58179;48.776;9.124;2023-03-19T03:43:19;97128.59;;;9.34;100.00
55914;BME280;58179;48.776;9.124;2023-03-19T03:45:46;97127.31;;;9.37;100.00
55914;BME280;58179;48.776;9.124;2023-03-19T03:48:12;97132.03;;;9.35;100.00
55914;BME280;58179;48.776;9.124;2023-03-19T03:50:39;97137.03;;;9.31;100.00
55914;BME280;58179;48.776;9.124;2023-03-19T03:53:06;97142.53;;;9.24;100.00
55914;BME280;58179;48.776;9.124;2023-03-19T03:55:33;97136.97;;;9.26;100.00
55914;BME280;58179;48.776;9.124;2023-03-19T03:58:00;97142.44;;;9.19;100.00
55914;BME280;58179;48.776;9.124;2023-03-19T04:00:26;97139.72;;;9.09;100.00
55914;BME280;58179;48.776;9.124;2023-03-19T04:02:52;97139.63;;;9.04;100.00
55914;BME280;58179;48.776;9.124;2023-03-19T04:05:18;97139.53;;;8.94;100.00
55914;BME280;58179;48.776;9.124;2023-03-19T04:07:45;97153.22;;;8.91;100.00
55914;BME280;58179;48.776;9.124;2023-03-19T04:10:12;97146.03;;;8.86;100.00
55914;BME280;58179;48.776;9.124;2023-03-19T04:12:39;97141.66;;;8.75;100.00
55914;BME280;58179;48.776;9.124;2023-03-19T04:15:08;97147.31;;;8.84;100.00
55914;BME280;58179;48.776;9.124;2023-03-19T04:17:35;97146.53;;;8.83;100.00
55914;BME280;58179;48.776;9.124;2023-03-19T04:20:01;97149.78;;;8.90;100.00
55914;BME280;58179;48.776;9.124;2023-03-19T04:22:29;97153.16;;;8.86;100.00
55914;BME280;58179;48.776;9.124;2023-03-19T04:24:57;97151.56;;;8.85;100.00
55914;BME280;58179;48.776;9.124;2023-03-19T04:27:23;97156.47;;;8.76;100.00
55914;BME280;58179;48.776;9.124;2023-03-19T04:29:49;97147.81;;;8.81;100.00
55914;BME280;58179;48.776;9.124;2023-03-19T04:32:15;97154.44;;;8.83;100.00
55914;BME280;58179;48.776;9.124;2023-03-19T04:34:41;97158.72;;;8.89;100.00
55914;BME280;58179;48.776;9.124;2023-03-19T04:37:08;97154.00;;;8.91;100.00
55914;BME280;58179;48.776;9.124;2023-03-19T04:39:35;97156.75;;;8.80;100.00
55914;BME280;58179;48.776;9.124;2023-03-19T04:42:02;97161.25;;;8.79;100.00
55914;BME280;58179;48.776;9.124;2023-03-19T04:44:29;97164.13;;;8.78;100.00
55914;BME280;58179;48.776;9.124;2023-03-19T04:46:56;97167.63;;;8.83;100.00
55914;BME280;58179;48.776;9.124;2023-03-19T04:49:22;97163.72;;;8.86;100.00
55914;BME280;58179;48.776;9.124;2023-03-19T04:51:49;97172.50;;;8.91;100.00
55914;BME280;58179;48.776;9.124;2023-03-19T04:54:15;97172.16;;;8.88;100.00
55914;BME280;58179;48.776;9.124;2023-03-19T04:56:41;97172.13;;;8.83;100.00
55914;BME280;58179;48.776;9.124;2023-03-19T04:59:08;97168.13;;;8.80;100.00
55914;BME280;58179;48.776;9.124;2023-03-19T05:01:35;97172.59;;;8.80;100.00
55914;BME280;58179;48.776;9.124;2023-03-19T05:04:01;97178.44;;;8.82;100.00
55914;BME280;58179;48.776;9.124;2023-03-19T05:06:27;97177.63;;;8.81;100.00
55914;BME280;58179;48.776;9.124;2023-03-19T05:08:53;97184.69;;;8.76;100.00
55914;BME280;58179;48.776;9.124;2023-03-19T05:11:19;97186.06;;;8.78;100.00
55914;BME280;58179;48.776;9.124;2023-03-19T05:13:46;97184.69;;;8.76;100.00
55914;BME280;58179;48.776;9.124;2023-03-19T05:16:13;97183.09;;;8.75;100.00
55914;BME280;58179;48.776;9.124;2023-03-19T05:18:39;97182.53;;;8.73;100.00
55914;BME280;58179;48.776;9.124;2023-03-19T05:21:05;97184.31;;;8.67;100.00
55914;BME280;58179;48.776;9.124;2023-03-19T05:23:31;97191.13;;;8.63;100.00
55914;BME280;58179;48.776;9.124;2023-03-19T05:25:57;97190.16;;;8.52;100.00
55914;BME280;58179;48.776;9.124;2023-03-19T05:28:25;97194.41;;;8.53;100.00
55914;BME280;58179;48.776;9.124;2023-03-19T05:30:52;97192.75;;;8.47;100.00
55914;BME280;58179;48.776;9.124;2023-03-19T05:33:19;97189.78;;;8.44;100.00
55914;BME280;58179;48.776;9.124;2023-03-19T05:35:45;97196.09;;;8.43;100.00
55914;BME280;58179;48.776;9.124;2023-03-19T05:38:11;97186.59;;;8.42;100.00
55914;BME280;58179;48.776;9.124;2023-03-19T05:40:37;97201.13;;;8.44;100.00
55914;BME280;58179;48.776;9.124;2023-03-19T05:43:06;97194.75;;;8.40;100.00
55914;BME280;58179;48.776;9.124;2023-03-19T05:45:32;97197.63;;;8.39;100.00
55914;BME280;58179;48.776;9.124;2023-03-19T05:47:58;97201.31;;;8.38;100.00
55914;BME280;58179;48.776;9.124;2023-03-19T05:50:26;97209.16;;;8.33;100.00
55914;BME280;58179;48.776;9.124;2023-03-19T05:52:52;97212.59;;;8.33;100.00
55914;BME280;58179;48.776;9.124;2023-03-19T05:55:18;97207.63;;;8.37;100.00
55914;BME280;58179;48.776;9.124;2023-03-19T05:57:44;97214.81;;;8.41;100.00
55914;BME280;58179;48.776;9.124;2023-03-19T06:00:11;97219.53;;;8.39;100.00
55914;BME280;58179;48.776;9.124;2023-03-19T06:02:37;97219.47;;;8.34;100.00
55914;BME280;58179;48.776;9.124;2023-03-19T06:05:04;97221.16;;;8.29;100.00
55914;BME280;58179;48.776;9.124;2023-03-19T06:07:32;97220.72;;;8.32;100.00
55914;BME280;58179;48.776;9.124;2023-03-19T06:09:58;97227.25;;;8.29;100.00
55914;BME280;58179;48.776;9.124;2023-03-19T06:12:24;97230.25;;;8.33;100.00
55914;BME280;58179;48.776;9.124;2023-03-19T06:14:50;97238.97;;;8.33;100.00
55914;BME280;58179;48.776;9.124;2023-03-19T06:17:16;97235.81;;;8.36;100.00
55914;BME280;58179;48.776;9.124;2023-03-19T06:19:42;97235.34;;;8.39;100.00
55914;BME280;58179;48.776;9.124;2023-03-19T06:22:09;97241.19;;;8.41;100.00
55914;BME280;58179;48.776;9.124;2023-03-19T06:24:36;97231.28;;;8.48;100.00
55914;BME280;58179;48.776;9.124;2023-03-19T06:27:03;97234.44;;;8.50;100.00
55914;BME280;58179;48.776;9.124;2023-03-19T06:29:29;97236.38;;;8.55;100.00
55914;BME280;58179;48.776;9.124;2023-03-19T06:31:55;97238.06;;;8.61;100.00
55914;BME280;58179;48.776;9.124;2023-03-19T06:34:21;97236.22;;;8.62;100.00
55914;BME280;58179;48.776;9.124;2023-03-19T06:36:47;97238.34;;;8.65;100.00
55914;BME280;58179;48.776;9.124;2023-03-19T06:39:13;97242.69;;;8.71;100.00
55914;BME280;58179;48.776;9.124;2023-03-19T06:41:41;97233.72;;;8.72;100.00
55914;BME280;58179;48.776;9.124;2023-03-19T06:44:07;97235.63;;;8.76;100.00
55914;BME280;58179;48.776;9.124;2023-03-19T06:46:33;97233.84;;;8.82;100.00
55914;BME280;58179;48.776;9.124;2023-03-19T06:48:59;97233.84;;;8.82;100.00
55914;BME280;58179;48.776;9.124;2023-03-19T06:51:24;97233.63;;;8.83;100.00
55914;BME280;58179;48.776;9.124;2023-03-19T06:53:52;97232.88;;;8.88;100.00
55914;BME280;58179;48.776;9.124;2023-03-19T06:56:18;97239.59;;;8.96;100.00
55914;BME280;58179;48.776;9.124;2023-03-19T06:58:45;97243.63;;;9.03;100.00
55914;BME280;58179;48.776;9.124;2023-03-19T07:01:11;97236.34;;;9.10;100.00
55914;BME280;58179;48.776;9.124;2023-03-19T07:03:37;97239.06;;;9.15;100.00
55914;BME280;58179;48.776;9.124;2023-03-19T07:06:03;97238.88;;;9.22;100.00
55914;BME280;58179;48.776;9.124;2023-03-19T07:08:29;97240.53;;;9.28;100.00
55914;BME280;58179;48.776;9.124;2023-03-19T07:10:55;97243.97;;;9.28;100.00
55914;BME280;58179;48.776;9.124;2023-03-19T07:13:21;97247.88;;;9.26;100.00
55914;BME280;58179;48.776;9.124;2023-03-19T07:15:49;97241.75;;;9.20;100.00
55914;BME280;58179;48.776;9.124;2023-03-19T07:18:15;97239.25;;;9.09;100.00
55914;BME280;58179;48.776;9.124;2023-03-19T07:20:41;97243.16;;;9.06;100.00
55914;BME280;58179;48.776;9.124;2023-03-19T07:23:07;97249.72;;;9.25;100.00
55914;BME280;58179;48.776;9.124;2023-03-19T07:25:33;97249.97;;;9.02;100.00
55914;BME280;58179;48.776;9.124;2023-03-19T07:27:58;97250.59;;;9.09;100.00
55914;BME280;58179;48.776;9.124;2023-03-19T07:30:25;97250.84;;;9.08;100.00
55914;BME280;58179;48.776;9.124;2023-03-19T07:32:52;97257.47;;;9.10;100.00
55914;BME280;58179;48.776;9.124;2023-03-19T07:35:19;97246.47;;;9.18;100.00
55914;BME280;58179;48.776;9.124;2023-03-19T07:37:46;97251.28;;;9.21;100.00
55914;BME280;58179;48.776;9.124;2023-03-19T07:40:12;97255.53;;;9.22;100.00
55914;BME280;58179;48.776;9.124;2023-03-19T07:42:38;97258.97;;;9.45;100.00
55914;BME280;58179;48.776;9.124;2023-03-19T07:45:05;97257.78;;;9.57;100.00
55914;BME280;58179;48.776;9.124;2023-03-19T07:47:31;97260.00;;;9.44;100.00
55914;BME280;58179;48.776;9.124;2023-03-19T07:49:59;97259.75;;;9.67;100.00
55914;BME280;58179;48.776;9.124;2023-03-19T07:52:25;97266.38;;;9.69;100.00
55914;BME280;58179;48.776;9.124;2023-03-19T07:54:51;97268.97;;;9.64;100.00
55914;BME280;58179;48.776;9.124;2023-03-19T07:57:18;97269.47;;;9.61;100.00
55914;BME280;58179;48.776;9.124;2023-03-19T07:59:44;97266.88;;;9.66;100.00
55914;BME280;58179;48.776;9.124;2023-03-19T08:02:10;97266.06;;;9.66;100.00
55914;BME280;58179;48.776;9.124;2023-03-19T08:04:37;97259.97;;;9.92;100.00
55914;BME280;58179;48.776;9.124;2023-03-19T08:07:05;97255.16;;;10.11;100.00
55914;BME280;58179;48.776;9.124;2023-03-19T08:09:31;97253.34;;;10.17;100.00
55914;BME280;58179;48.776;9.124;2023-03-19T08:11:57;97270.34;;;10.21;100.00
55914;BME280;58179;48.776;9.124;2023-03-19T08:14:23;97260.59;;;10.26;100.00
55914;BME280;58179;48.776;9.124;2023-03-19T08:16:49;97269.72;;;10.14;100.00
55914;BME280;58179;48.776;9.124;2023-03-19T08:19:15;97264.31;;;10.25;100.00
55914;BME280;58179;48.776;9.124;2023-03-19T08:21:41;97262.56;;;10.36;100.00
55914;BME280;58179;48.776;9.124;2023-03-19T08:24:09;97260.25;;;10.44;100.00
55914;BME280;58179;48.776;9.124;2023-03-19T08:26:35;97265.34;;;10.56;100.00
55914;BME280;58179;48.776;9.124;2023-03-19T08:29:02;97259.75;;;10.53;100.00
55914;BME280;58179;48.776;9.124;2023-03-19T08:31:29;97263.03;;;10.65;100.00
55914;BME280;58179;48.776;9.124;2023-03-19T08:33:55;97263.41;;;10.83;100.00
55914;BME280;58179;48.776;9.124;2023-03-19T08:36:21;97266.28;;;10.77;100.00
55914;BME280;58179;48.776;9.124;2023-03-19T08:38:47;97262.88;;;10.81;100.00
55914;BME280;58179;48.776;9.124;2023-03-19T08:41:14;97266.91;;;10.89;100.00
55914;BME280;58179;48.776;9.124;2023-03-19T08:43:40;97259.81;;;11.00;100.00
55914;BME280;58179;48.776;9.124;2023-03-19T08:46:05;97265.97;;;11.10;100.00
55914;BME280;58179;48.776;9.124;2023-03-19T08:48:32;97259.25;;;10.98;100.00
55914;BME280;58179;48.776;9.124;2023-03-19T08:50:59;97269.41;;;11.11;100.00
55914;BME280;58179;48.776;9.124;2023-03-19T08:53:27;97273.84;;;11.00;100.00
55914;BME280;58179;48.776;9.124;2023-03-19T08:55:55;97272.63;;;10.76;100.00
55914;BME280;58179;48.776;9.124;2023-03-19T08:58:23;97278.50;;;10.83;100.00
55914;BME280;58179;48.776;9.124;2023-03-19T09:00:50;97276.78;;;11.04;100.00
55914;BME280;58179;48.776;9.124;2023-03-19T09:03:16;97287.19;;;11.20;100.00
55914;BME280;58179;48.776;9.124;2023-03-19T09:05:43;97290.75;;;11.41;100.00
55914;BME280;58179;48.776;9.124;2023-03-19T09:08:09;97287.13;;;11.57;100.00
55914;BME280;58179;48.776;9.124;2023-03-19T09:10:35;97292.38;;;11.52;100.00
55914;BME280;58179;48.776;9.124;2023-03-19T09:13:02;97291.09;;;11.55;100.00
55914;BME280;58179;48.776;9.124;2023-03-19T09:15:29;97284.00;;;11.71;100.00
55914;BME280;58179;48.776;9.124;2023-03-19T09:17:55;97284.00;;;11.71;100.00
55914;BME280;58179;48.776;9.124;2023-03-19T09:20:21;97284.56;;;11.88;100.00
55914;BME280;58179;48.776;9.124;2023-03-19T09:22:47;97284.09;;;12.01;100.00
55914;BME280;58179;48.776;9.124;2023-03-19T09:25:13;97288.63;;;12.16;100.00
55914;BME280;58179;48.776;9.124;2023-03-19T09:27:39;97284.91;;;12.27;100.00
55914;BME280;58179;48.776;9.124;2023-03-19T09:30:06;97283.88;;;12.28;100.00
55914;BME280;58179;48.776;9.124;2023-03-19T09:32:35;97281.47;;;12.26;100.00
55914;BME280;58179;48.776;9.124;2023-03-19T09:35:02;97288.66;;;12.36;100.00
55914;BME280;58179;48.776;9.124;2023-03-19T09:37:27;97281.22;;;12.53;100.00
55914;BME280;58179;48.776;9.124;2023-03-19T09:39:54;97275.38;;;12.71;100.00
55914;BME280;58179;48.776;9.124;2023-03-19T09:42:39;97273.00;;;12.60;100.00
55914;BME280;58179;48.776;9.124;2023-03-19T09:45:15;97261.03;;;12.83;100.00
55914;BME280;58179;48.776;9.124;2023-03-19T09:47:43;97250.63;;;12.96;100.00
55914;BME280;58179;48.776;9.124;2023-03-19T09:50:13;97256.69;;;13.27;100.00
55914;BME280;58179;48.776;9.124;2023-03-19T09:52:43;97256.53;;;13.68;100.00
55914;BME280;58179;48.776;9.124;2023-03-19T09:55:19;97248.41;;;13.98;100.00
55914;BME280;58179;48.776;9.124;2023-03-19T09:57:54;97253.72;;;13.98;100.00
55914;BME280;58179;48.776;9.124;2023-03-19T10:00:24;97250.69;;;14.10;100.00
55914;BME280;58179;48.776;9.124;2023-03-19T10:03:00;97247.97;;;14.20;100.00
55914;BME280;58179;48.776;9.124;2023-03-19T10:05:40;97237.94;;;14.51;100.00
55914;BME280;58179;48.776;9.124;2023-03-19T10:08:36;97248.63;;;15.03;100.00
55914;BME280;58179;48.776;9.124;2023-03-19T10:11:21;97244.97;;;15.42;100.00
55914;BME280;58179;48.776;9.124;2023-03-19T10:14:01;97237.44;;;15.92;100.00
55914;BME280;58179;48.776;9.124;2023-03-19T10:16:31;97237.03;;;16.36;100.00
55914;BME280;58179;48.776;9.124;2023-03-19T10:19:03;97243.41;;;16.72;100.00
55914;BME280;58179;48.776;9.124;2023-03-19T10:21:36;97243.38;;;17.18;100.00
55914;BME280;58179;48.776;9.124;2023-03-19T10:24:08;97241.50;;;17.19;100.00
55914;BME280;58179;48.776;9.124;2023-03-19T10:26:35;97242.94;;;17.52;100.00
55914;BME280;58179;48.776;9.124;2023-03-19T10:29:08;97237.59;;;17.79;100.00
55914;BME280;58179;48.776;9.124;2023-03-19T10:31:46;97248.31;;;18.15;100.00
55914;BME280;58179;48.776;9.124;2023-03-19T10:34:33;97252.06;;;18.73;100.00
55914;BME280;58179;48.776;9.124;2023-03-19T10:37:03;97251.69;;;18.43;84.99
55914;BME280;58179;48.776;9.124;2023-03-19T10:39:33;97239.91;;;18.08;84.76
55914;BME280;58179;48.776;9.124;2023-03-19T10:42:12;97225.88;;;18.25;100.00
55914;BME280;58179;48.776;9.124;2023-03-19T10:44:46;97237.97;;;18.45;100.00
55914;BME280;58179;48.776;9.124;2023-03-19T10:47:16;97227.53;;;18.88;86.95
55914;BME280;58179;48.776;9.124;2023-03-19T10:49:43;97225.50;;;19.73;89.44
55914;BME280;58179;48.776;9.124;2023-03-19T10:52:18;97222.84;;;20.07;77.81
55914;BME280;58179;48.776;9.124;2023-03-19T10:54:46;97211.94;;;19.95;64.37
55914;BME280;58179;48.776;9.124;2023-03-19T10:57:24;97213.97;;;19.89;69.89
55914;BME280;58179;48.776;9.124;2023-03-19T10:59:51;97225.53;;;19.90;79.95
55914;BME280;58179;48.776;9.124;2023-03-19T11:02:19;97226.31;;;19.82;72.29
55914;BME280;58179;48.776;9.124;2023-03-19T11:04:47;97224.66;;;19.55;70.94
55914;BME280;58179;48.776;9.124;2023-03-19T11:07:17;97223.78;;;19.77;90.56
55914;BME280;58179;48.776;9.124;2023-03-19T11:09:46;97219.78;;;19.65;76.89
55914;BME280;58179;48.776;9.124;2023-03-19T11:12:18;97218.69;;;19.66;90.00
55914;BME280;58179;48.776;9.124;2023-03-19T11:14:47;97215.97;;;19.49;70.74
55914;BME280;58179;48.776;9.124;2023-03-19T11:17:21;97212.50;;;19.18;70.77
55914;BME280;58179;48.776;9.124;2023-03-19T11:19:51;97214.91;;;18.88;77.57
55914;BME280;58179;48.776;9.124;2023-03-19T11:22:22;97217.25;;;18.81;85.76
55914;BME280;58179;48.776;9.124;2023-03-19T11:24:52;97213.84;;;18.45;84.64
55914;BME280;58179;48.776;9.124;2023-03-19T11:27:26;97201.97;;;17.93;69.22
55914;BME280;58179;48.776;9.124;2023-03-19T11:29:53;97206.09;;;17.63;72.71
55914;BME280;58179;48.776;9.124;2023-03-19T11:32:37;97198.38;;;17.61;82.66
55914;BME280;58179;48.776;9.124;2023-03-19T11:35:12;97202.84;;;17.66;73.00
55914;BME280;58179;48.776;9.124;2023-03-19T11:37:52;97205.59;;;18.10;95.67
55914;BME280;58179;48.776;9.124;2023-03-19T11:40:27;97201.56;;;18.22;93.41
55914;BME280;58179;48.776;9.124;2023-03-19T11:43:29;97198.00;;;18.12;73.41
55914;BME280;58179;48.776;9.124;2023-03-19T11:46:10;97195.25;;;18.17;82.01
55914;BME280;58179;48.776;9.124;2023-03-19T11:49:04;97186.63;;;18.29;77.62
55914;BME280;58179;48.776;9.124;2023-03-19T11:51:38;97179.66;;;18.50;77.09
55914;BME280;58179;48.776;9.124;2023-03-19T11:54:11;97183.97;;;18.29;68.38
55914;BME280;58179;48.776;9.124;2023-03-19T11:56:45;97195.53;;;18.16;68.99
55914;BME280;58179;48.776;9.124;2023-03-19T12:02:50;97186.66;;;17.71;70.46
55914;BME280;58179;48.776;9.124;2023-03-19T12:05:26;97182.47;;;17.78;74.49
55914;BME280;58179;48.776;9.124;2023-03-19T12:08:18;97175.03;;;18.65;92.62
55914;BME280;58179;48.776;9.124;2023-03-19T12:11:00;97180.50;;;18.82;63.60
55914;BME280;58179;48.776;9.124;2023-03-19T12:13:43;97171.06;;;18.84;71.99
55914;BME280;58179;48.776;9.124;2023-03-19T12:16:19;97178.44;;;18.79;73.06
55914;BME280;58179;48.776;9.124;2023-03-19T12:22:15;97170.13;;;18.36;87.71
55914;BME280;58179;48.776;9.124;2023-03-19T12:25:01;97177.06;;;18.14;76.58
55914;BME280;58179;48.776;9.124;2023-03-19T12:27:39;97175.91;;;18.07;69.86
55914;BME280;58179;48.776;9.124;2023-03-19T12:30:14;97172.19;;;18.39;76.26
55914;BME280;58179;48.776;9.124;2023-03-19T12:32:58;97171.13;;;18.40;89.29
55914;BME280;58179;48.776;9.124;2023-03-19T12:35:33;97168.91;;;18.42;85.89
55914;BME280;58179;48.776;9.124;2023-03-19T12:38:04;97174.66;;;18.27;89.18
55914;BME280;58179;48.776;9.124;2023-03-19T12:40:38;97167.56;;;17.86;91.43
55914;BME280;58179;48.776;9.124;2023-03-19T12:43:16;97164.16;;;17.58;91.95
55914;BME280;58179;48.776;9.124;2023-03-19T12:45:45;97163.63;;;17.20;80.27
55914;BME280;58179;48.776;9.124;2023-03-19T12:48:16;97168.59;;;17.13;99.15
55914;BME280;58179;48.776;9.124;2023-03-19T12:50:49;97162.03;;;16.92;100.00
55914;BME280;58179;48.776;9.124;2023-03-19T12:53:27;97170.53;;;16.80;100.00
55914;BME280;58179;48.776;9.124;2023-03-19T12:55:59;97173.31;;;16.43;87.96
55914;BME280;58179;48.776;9.124;2023-03-19T12:58:37;97190.69;;;16.26;100.00
55914;BME280;58179;48.776;9.124;2023-03-19T13:01:10;97195.56;;;16.06;100.00
55914;BME280;58179;48.776;9.124;2023-03-19T13:03:42;97194.97;;;15.71;100.00
55914;BME280;58179;48.776;9.124;2023-03-19T13:06:16;97206.50;;;15.48;100.00
55914;BME280;58179;48.776;9.124;2023-03-19T13:08:51;97207.84;;;15.03;100.00
55914;BME280;58179;48.776;9.124;2023-03-19T13:11:34;97198.94;;;14.26;100.00
55914;BME280;58179;48.776;9.124;2023-03-19T13:14:09;97187.28;;;13.83;100.00